KIEN

Details ICAO KIEN
Name PINE RIDGE
Region United States
Timezone America/Denver (UTC-6.0)
Plans Departing 0
Arriving 2
Stats Elevation 3,333 ft / 1,016 m (AMSL)
Location 43.022923° -102.512477°
Runways 2
Magnetic Variation 6.987° E
Sunrise 2018-05-25 11:19:18 UTC / 2018-05-25 05:19:18 Local
Sunset 2018-05-26 02:17:37 UTC / 2018-05-25 20:17:37 Local
Advertisement - Login to hide

Runways

ID Width Length Bearing (true) Bearing (mag) Surface Threshold Offset Overrun Length
06 50 ft / 15 m 2,996 ft / 913 m 76.87° 69.88° Asphalt 0 ft / 0 m 0 ft / 0 m
12 60 ft / 18 m 4,995 ft / 1,523 m 128.74° 121.75° Asphalt 0 ft / 0 m 0 ft / 0 m
24 50 ft / 15 m 2,996 ft / 913 m 256.88° 249.89° Asphalt 0 ft / 0 m 0 ft / 0 m
30 60 ft / 18 m 4,995 ft / 1,523 m 308.75° 301.76° Asphalt 0 ft / 0 m 0 ft / 0 m

Map

Weather


0- 5 10 15 20 25 30 35+ Temperature / ° C

Clouds and Precipitation
Forecast for 2018-05-26 00:00 UTC. Updated 3 hours ago

Ground ~20,000 ft ~40,000 ft Winds

METAR

KIEN 260152Z AUTO 00000KT 10SM CLR 26/16 A2988 RMK AO2 SLP084 T02610156

TAF

Not found

Frequencies

Recorded 126.77 MHz ASOS
Unicom 122.90 MHz CTAF
Warning: Do not use this data for real-world aviation or navigation. No guarantee of current accuracy is given.